createdAt,value
2022-09-11T09:26:49.773Z,59.39
2022-09-11T09:29:36.447Z,59.29
2022-09-11T09:32:23.369Z,59.23
2022-09-11T09:35:10.053Z,59.31
2022-09-11T09:37:56.814Z,59.43
2022-09-11T09:40:43.531Z,59.37
2022-09-11T09:43:26.609Z,59.60
2022-09-11T09:46:13.394Z,59.54
2022-09-11T09:49:00.143Z,59.44
2022-09-11T09:51:47.084Z,59.35
2022-09-11T09:54:33.750Z,59.29
2022-09-11T09:57:20.561Z,59.18
2022-09-11T10:00:07.231Z,59.03
2022-09-11T10:02:53.932Z,58.68
2022-09-11T10:05:40.694Z,58.33
2022-09-11T10:08:27.406Z,58.05
2022-09-11T10:11:14.122Z,57.69
2022-09-11T10:14:00.793Z,57.46
2022-09-11T10:16:47.558Z,57.36
2022-09-11T10:19:34.370Z,57.16
2022-09-11T10:22:21.307Z,57.05
2022-09-11T10:25:07.998Z,56.77
2022-09-11T10:27:54.727Z,56.65
2022-09-11T10:30:41.486Z,56.56
2022-09-11T10:33:28.192Z,56.52
2022-09-11T10:36:15.504Z,56.25
2022-09-11T10:39:02.173Z,56.17
2022-09-11T10:41:48.999Z,56.22
2022-09-11T10:44:35.682Z,56.30
2022-09-11T10:47:22.396Z,56.54
2022-09-11T10:50:09.067Z,56.70
2022-09-11T10:52:55.830Z,56.95
2022-09-11T10:55:42.559Z,57.18
2022-09-11T10:58:29.314Z,57.34
2022-09-11T11:01:16.096Z,57.46
2022-09-11T11:04:02.841Z,57.78
2022-09-11T11:06:49.535Z,58.05
2022-09-11T11:09:36.204Z,57.90
2022-09-11T11:12:22.854Z,57.80
2022-09-11T11:15:09.529Z,57.62
2022-09-11T11:17:56.219Z,57.42
2022-09-11T11:20:43.004Z,57.20
2022-09-11T11:23:29.748Z,56.74
2022-09-11T11:26:16.501Z,56.48
2022-09-11T11:29:03.152Z,56.40
2022-09-11T11:31:49.863Z,56.16
2022-09-11T11:34:36.634Z,56.02
2022-09-11T11:37:23.280Z,56.16
2022-09-11T11:40:10.024Z,55.96
2022-09-11T11:42:56.714Z,55.83
2022-09-11T11:45:43.740Z,55.93
2022-09-11T11:48:30.488Z,55.96
2022-09-11T11:51:17.209Z,56.05
2022-09-11T11:54:03.895Z,56.27
2022-09-11T11:56:50.709Z,56.28
2022-09-11T11:59:37.361Z,55.99
2022-09-11T12:02:24.032Z,55.71
2022-09-11T12:05:10.852Z,55.64
2022-09-11T12:07:57.491Z,55.58
2022-09-11T12:10:44.270Z,55.60
2022-09-11T12:13:30.938Z,55.53
2022-09-11T12:16:17.701Z,55.51
2022-09-11T12:19:04.503Z,55.86
2022-09-11T12:21:51.297Z,56.04
2022-09-11T12:24:37.951Z,56.11
2022-09-11T12:27:24.726Z,56.06
2022-09-11T12:30:11.446Z,56.28
2022-09-11T12:32:58.236Z,56.27
2022-09-11T12:35:44.959Z,56.38
2022-09-11T12:38:31.594Z,56.35
2022-09-11T12:41:18.261Z,56.43
2022-09-11T12:44:04.958Z,56.82
2022-09-11T12:46:52.123Z,56.65
2022-09-11T12:49:38.811Z,56.53
2022-09-11T12:52:25.755Z,57.09
2022-09-11T12:55:12.429Z,57.03
2022-09-11T12:57:59.129Z,56.84
2022-09-11T13:00:46.109Z,56.74
2022-09-11T13:03:32.792Z,56.45
2022-09-11T13:06:19.547Z,56.26
2022-09-11T13:09:06.191Z,56.11
2022-09-11T13:11:52.912Z,55.26
2022-09-11T13:14:39.575Z,55.04
2022-09-11T13:17:26.275Z,54.97
2022-09-11T13:20:12.942Z,54.81
2022-09-11T13:22:59.697Z,54.71
2022-09-11T13:25:46.365Z,54.71
2022-09-11T13:28:33.074Z,54.64
2022-09-11T13:31:19.815Z,54.70
2022-09-11T13:34:06.532Z,54.66
2022-09-11T13:36:56.485Z,54.58
2022-09-11T13:39:43.568Z,54.54
2022-09-11T13:42:30.285Z,54.56
2022-09-11T13:45:16.948Z,54.57
2022-09-11T13:48:03.598Z,54.54
